Terminal Aerodrome Forecast
Issued by NWS Sioux Falls, SD

Home | Current Version | Previous Version | Text Only | Print | Product List | Glossary Off
Versions: 1 2 3 4 5 6 7 8 9 10 11 12 13 14 15 16 17 18 19 20 21 22 23 24 25 26 27 28 29 30 31 32 33 34 35 36 37 38

000
FTUS43 KFSD 281136
TAFSUX
TAF
KSUX 281136Z 2812/2912 12007KT 5SM SHRA OVC010
      TEMPO 2812/2816 BKN007
     FM281600 VRB04KT P6SM OVC009
     FM281900 15008KT P6SM BKN015
      TEMPO 2819/2822 -SHRA
     FM282200 17006KT P6SM SCT015 BKN200
     FM291000 15008KT 4SM BR BKN006=

USA.gov is the U.S. government's official web portal to all federal, state and local government web resources and services.